Alexandria, Egypt

2:28 PM EET on October 02, 2014 (GMT +0200)
Alexandria International | Change Station
CLOSE
Current Station
Airport
Location: Alexandria,
Elevation: 23 ft
Nearby Weather Stations

Elev 23 ft 31.18 °N, 29.95 °E | Updated 28 minutes ago

Scattered Clouds
Scattered Clouds
81 °F
Feels Like 81 °F
N
7
Wind Variable Wind from North

Today
High -- | Low -- °F
--% Chance of Precip.
Yesterday
High -- | Low -- °F
Precip. -- in
5:54 AM 5:44 PM
First Quarter, 58% visible
Pressure 29.98 in
Visibility 6.2 miles
Clouds Scattered Clouds 2000 ft
Heat Index 81 °F
Dew Point 59 °F
Humidity 48%
Rainfall 0.00 in
Snow Depth Not available.
UV 7 out of 12
Pollen Not available.
Air Quality Not available.
Flu Activity Not available.
METAR HEAX 011200Z 35006KT 9999 SCT020 27/15 Q1015 NOSIG

More Conditions Fewer Conditions

Pressure 29.98 in
Visibility 6.2 miles
Clouds Scattered Clouds 2000 ft
Heat Index 81 °F
Dew Point 59 °F
Humidity 48%
Rainfall 0.00 in
Snow Depth Not available.
UV 7 out of 12
Pollen Not available.
Air Quality Not available.
Flu Activity Not available.
METAR HEAX 011200Z 35006KT 9999 SCT020 27/15 Q1015 NOSIG

More Conditions Fewer Conditions

10-Day Weather Forecast

Almanac

Astronomy

Oct. 02, 2014 Rise Set
Actual Time 5:54 AM EET 5:44 PM EET
Civil Twilight 5:30 AM EET 6:08 PM EET
Nautical Twilight 5:02 AM EET 6:36 PM EET
Astronomical Twilight 4:33 AM EET 7:04 PM EET
Moon 1:13 PM EET No Moon Set
Length of Visible Light 12h 38m
Length of Day
11h 50m
Tomorrow will be 1m 52s shorter.
First Quarter, 58% of the Moon is Illuminated
Today
First Quarter
Oct 8
Full
Oct 15
Last Quarter
Oct 23
New
Oct 30
First Quarter

Yesterday's Extremes

Country Highs Country Lows

Community

WunderPhotos

Upload Photos

1,758,223 photos uploaded!

WunderBlogs® & News

Nearby

Snow Depth

Not available.

Earthquake Activity

City Distance Mag. Time & Date
No recent earthquake activity has been reported nearby.
Minimum magnitude displayed is 2.5.

Coastal Water Temperatures

Place Temperature
No Stations Reporting

Nearby Weather Stations